MUCM/CMW METAR and TAF weather

Enter ICAO airport designator
Station Type Date Time Source
MUCM METAR 2024/07/14 13:50 UTC NOAA

MUCM 141350Z 07012KT 9000 SCT020 31/28 Q1018


Station Type Date Time Source
MUCM Decoded METAR 2024/07/14 13:50 UTC NOAA

Camaguey Aeropuerto, Cuba (MUCM) 21-25N 077-51W 118M
Jul 14, 2024 - 09:50 AM EDT / 2024.07.14 1350 UTC
Wind: from the ENE (070 degrees) at 14 MPH (12 KT):0
Visibility: 5 mile(s):0
Sky conditions: partly cloudy
Temperature: 87 F (31 C)
Heat index: 105.3 F (40.7 C):1
Dew Point: 82 F (28 C)
Relative Humidity: 84%
Pressure (altimeter): 30.06 in. Hg (1018 hPa)
ob: MUCM 141350Z 07012KT 9000 SCT020 31/28 Q1018
cycle: 14

Station Type Date Time Source
MUCM TAF 2024/07/14 12:07 UTC NOAA